Time;durP1;ratioP1;P1;durP2;ratioP2;P2;SDS_P1;SDS_P2;PMS_P1;PMS_P2;Temp;Humidity;BMP_temperature;BMP_pressure;BME280_temperature;BME280_humidity;BME280_pressure;Samples;Min_cycle;Max_cycle;Signal;HPM_P1;HPM_P2
2022/03/04 00:04:50;;;;;;;107.43;48.47;;;;;;;-0.65;68.98;99141.47;4346834;80;21032;-88
2022/03/04 00:10:51;;;;;;;90.90;41.67;;;;;;;-0.61;69.33;99141.11;4351905;81;20987;-86
2022/03/04 00:16:53;;;;;;;90.23;43.63;;;;;;;-0.59;69.52;99142.96;4350894;80;21041;-87
2022/03/04 00:22:55;;;;;;;96.33;44.13;;;;;;;-0.58;69.32;99137.82;4352346;80;20988;-87
2022/03/04 00:28:57;;;;;;;93.63;44.37;;;;;;;-0.54;69.68;99134.00;4350036;81;21067;-87
2022/03/04 00:34:59;;;;;;;100.30;46.88;;;;;;;-0.49;69.95;99138.74;4359076;81;21095;-86
2022/03/04 00:41:00;;;;;;;95.57;43.38;;;;;;;-0.49;69.82;99129.87;4350697;80;21042;-88
2022/03/04 00:47:02;;;;;;;97.37;45.60;;;;;;;-0.50;70.02;99131.75;4361938;80;21050;-87
2022/03/04 00:53:03;;;;;;;94.03;45.60;;;;;;;-0.49;70.04;99119.11;4352834;80;21133;-89
2022/03/04 00:59:05;;;;;;;103.53;48.35;;;;;;;-0.46;70.13;99112.59;4367837;80;21006;-88
2022/03/04 01:05:07;;;;;;;108.23;47.47;;;;;;;-0.48;70.31;99117.47;4370170;80;21043;-87
2022/03/04 01:11:09;;;;;;;112.87;50.80;;;;;;;-0.52;70.58;99130.47;4367487;80;21109;-87
2022/03/04 01:17:10;;;;;;;119.87;54.33;;;;;;;-0.53;70.80;99123.48;4358488;80;21034;-88
2022/03/04 01:23:12;;;;;;;122.20;56.80;;;;;;;-0.55;70.76;99117.05;4359858;80;21529;-86
2022/03/04 01:29:13;;;;;;;140.83;61.50;;;;;;;-0.54;70.80;99110.60;4350156;80;21340;-88
2022/03/04 01:35:14;;;;;;;117.03;52.83;;;;;;;-0.58;70.72;99114.97;4347020;80;21597;-88
2022/03/04 01:41:16;;;;;;;110.77;49.97;;;;;;;-0.63;70.41;99112.41;4364512;80;21090;-89
2022/03/04 01:47:17;;;;;;;104.37;46.10;;;;;;;-0.63;71.00;99112.41;4346100;81;21059;-89
2022/03/04 01:53:20;;;;;;;98.87;44.90;;;;;;;-0.63;70.76;99101.65;4352479;81;21034;-87
2022/03/04 01:59:22;;;;;;;82.93;38.73;;;;;;;-0.69;71.10;99106.08;4353409;81;21019;-87
2022/03/04 02:05:24;;;;;;;82.53;39.40;;;;;;;-0.65;70.79;99091.73;4351199;81;21574;-90
2022/03/04 02:11:26;;;;;;;84.42;40.92;;;;;;;-0.67;71.62;99097.14;4352881;81;21050;-87
2022/03/04 02:17:27;;;;;;;91.70;41.30;;;;;;;-0.60;71.46;99093.52;4362724;81;21621;-88
2022/03/04 02:23:28;;;;;;;66.43;30.87;;;;;;;-0.58;71.47;99098.84;4345139;81;21074;-87
2022/03/04 02:29:34;;;;;;;76.33;34.23;;;;;;;-0.57;71.33;99103.14;4346832;80;21109;-89
2022/03/04 02:35:37;;;;;;;58.33;26.33;;;;;;;-0.53;71.45;99100.08;4346004;81;21054;-88
2022/03/04 02:41:38;;;;;;;63.90;29.20;;;;;;;-0.51;71.13;99095.75;4341609;80;21851;-87
2022/03/04 02:47:40;;;;;;;53.93;26.13;;;;;;;-0.63;71.70;99092.78;4347081;81;21790;-88
2022/03/04 02:53:41;;;;;;;50.73;25.43;;;;;;;-0.71;71.69;99089.44;4341001;81;21080;-88
2022/03/04 02:59:43;;;;;;;63.37;27.50;;;;;;;-0.74;71.92;99095.42;4355033;80;21058;-87
2022/03/04 03:05:44;;;;;;;67.70;31.30;;;;;;;-0.65;72.23;99095.77;4354447;80;21019;-86
2022/03/04 03:11:45;;;;;;;76.13;32.73;;;;;;;-0.65;71.50;99107.06;4344445;80;21542;-87
2022/03/04 03:17:47;;;;;;;64.50;30.33;;;;;;;-0.70;71.93;99120.59;4348995;80;21779;-86
2022/03/04 03:23:48;;;;;;;67.05;29.80;;;;;;;-0.73;72.06;99123.34;4349345;80;21082;-87
2022/03/04 03:29:50;;;;;;;64.97;30.23;;;;;;;-0.70;72.15;99127.31;4349608;81;21099;-90
2022/03/04 03:35:54;;;;;;;60.73;27.10;;;;;;;-0.68;72.13;99127.82;4355419;80;21601;-85
2022/03/04 03:41:55;;;;;;;63.93;30.27;;;;;;;-0.65;72.25;99134.75;4353984;81;21063;-88
2022/03/04 03:47:57;;;;;;;60.50;28.55;;;;;;;-0.65;72.29;99136.63;4363619;80;30822;-87
2022/03/04 03:53:58;;;;;;;65.12;29.20;;;;;;;-0.64;72.40;99135.55;4287754;80;21637;-88
2022/03/04 04:00:00;;;;;;;59.77;27.60;;;;;;;-0.63;72.44;99136.59;4307953;80;21591;-87
2022/03/04 04:06:03;;;;;;;67.00;28.35;;;;;;;-0.63;72.40;99135.80;4288660;80;21088;-84
2022/03/04 04:12:05;;;;;;;57.60;27.67;;;;;;;-0.59;72.41;99130.86;4286782;80;21106;-87
2022/03/04 04:18:06;;;;;;;59.38;28.25;;;;;;;-0.55;72.62;99134.53;4295350;80;21019;-86
2022/03/04 04:24:07;;;;;;;52.93;25.37;;;;;;;-0.56;72.43;99142.36;4288344;80;21622;-87
2022/03/04 04:30:11;;;;;;;56.60;26.75;;;;;;;-0.58;72.42;99141.86;4310640;80;21020;-88
2022/03/04 04:36:12;;;;;;;63.77;28.80;;;;;;;-0.59;72.63;99146.19;4293302;80;21059;-86
2022/03/04 04:42:14;;;;;;;58.35;29.48;;;;;;;-0.58;72.86;99149.92;4295748;80;21451;-89
2022/03/04 04:48:15;;;;;;;67.60;30.70;;;;;;;-0.58;72.89;99151.27;4294952;80;21027;-86
2022/03/04 04:54:16;;;;;;;58.07;28.77;;;;;;;-0.57;72.91;99148.04;4284307;80;21126;-86
2022/03/04 05:00:18;;;;;;;59.25;28.67;;;;;;;-0.59;73.03;99144.84;4291826;80;21067;-89
2022/03/04 05:06:19;;;;;;;57.73;28.17;;;;;;;-0.59;73.19;99144.84;4298627;80;21027;-89
2022/03/04 05:12:21;;;;;;;57.00;27.85;;;;;;;-0.59;73.17;99158.29;4307150;80;21090;-88
2022/03/04 05:18:22;;;;;;;51.57;25.20;;;;;;;-0.58;73.20;99159.33;4218775;82;21038;-87
2022/03/04 05:24:23;;;;;;;60.47;28.20;;;;;;;-0.56;72.88;99161.19;4159682;83;21567;-87
2022/03/04 05:30:25;;;;;;;54.63;26.33;;;;;;;-0.59;73.50;99165.01;4153181;83;21101;-88
2022/03/04 05:36:27;;;;;;;56.55;27.67;;;;;;;-0.56;73.70;99171.13;4246442;82;21067;-86
2022/03/04 05:42:28;;;;;;;53.83;26.20;;;;;;;-0.54;73.67;99171.64;4172603;83;21135;-87
2022/03/04 05:48:30;;;;;;;60.63;28.20;;;;;;;-0.49;73.74;99181.77;4155870;83;21026;-92
2022/03/04 05:54:31;;;;;;;65.10;29.67;;;;;;;-0.50;73.86;99188.22;4250047;82;21007;-87
2022/03/04 06:00:33;;;;;;;74.72;29.92;;;;;;;-0.46;74.13;99186.55;4288460;80;21073;-87
2022/03/04 06:06:34;;;;;;;69.73;30.17;;;;;;;-0.45;74.07;99186.79;4282011;80;21045;-86
2022/03/04 06:12:36;;;;;;;61.25;30.27;;;;;;;-0.48;74.28;99189.27;4289552;80;21039;-87
2022/03/04 06:18:37;;;;;;;63.60;32.28;;;;;;;-0.54;75.15;99206.06;4289078;80;21039;-86
2022/03/04 06:24:38;;;;;;;67.58;30.77;;;;;;;-0.54;75.15;99206.06;4285431;80;21122;-86
2022/03/04 06:30:40;;;;;;;71.80;31.75;;;;;;;-0.52;74.99;99215.95;4296865;80;21038;-87
2022/03/04 06:36:41;;;;;;;61.48;30.88;;;;;;;-0.50;75.28;99223.75;4287959;80;21078;-86
2022/03/04 06:42:45;;;;;;;65.22;30.45;;;;;;;-0.48;75.59;99233.64;4321105;80;21011;-88
2022/03/04 06:48:46;;;;;;;67.35;31.50;;;;;;;-0.43;75.77;99237.59;4321678;80;21618;-88
2022/03/04 06:54:48;;;;;;;64.65;32.03;;;;;;;-0.42;75.92;99233.80;4296701;80;21039;-92
2022/03/04 07:00:49;;;;;;;62.67;31.97;;;;;;;-0.44;76.01;99239.47;4280895;80;22089;-88
2022/03/04 07:06:51;;;;;;;68.57;31.50;;;;;;;-0.45;76.20;99233.85;4294110;80;21043;-88
2022/03/04 07:12:53;;;;;;;73.85;35.48;;;;;;;-0.44;75.95;99241.38;4297386;80;21562;-87
2022/03/04 07:18:54;;;;;;;83.45;37.53;;;;;;;-0.47;76.76;99250.83;4298481;80;21546;-87
2022/03/04 07:24:55;;;;;;;79.55;36.85;;;;;;;-0.36;77.04;99244.16;4288496;80;21665;-87
2022/03/04 07:30:57;;;;;;;75.37;34.73;;;;;;;-0.31;77.03;99250.80;4305209;80;21023;-89
2022/03/04 07:36:58;;;;;;;75.65;36.55;;;;;;;-0.28;77.18;99248.05;4287205;80;21128;-92
2022/03/04 07:43:01;;;;;;;79.03;36.70;;;;;;;-0.22;77.11;99253.05;4301629;80;21558;-89
2022/03/04 07:49:05;;;;;;;87.95;39.78;;;;;;;-0.15;77.71;99244.05;4293654;80;22243;-88
2022/03/04 07:55:11;;;;;;;84.15;37.95;;;;;;;-0.03;77.71;99262.36;4291846;80;21047;-88
2022/03/04 08:01:14;;;;;;;76.57;37.17;;;;;;;-0.03;77.71;99262.36;4288231;80;21126;-90
2022/03/04 08:07:17;;;;;;;84.52;38.02;;;;;;;0.06;77.79;99265.17;4298358;80;21672;-89
2022/03/04 08:13:19;;;;;;;96.30;40.63;;;;;;;0.13;77.36;99263.66;4300705;80;21074;-89
2022/03/04 08:19:20;;;;;;;83.22;38.98;;;;;;;0.15;77.93;99269.55;4295618;80;21507;-89
2022/03/04 08:25:24;;;;;;;84.60;38.05;;;;;;;0.21;77.44;99280.46;4291145;80;21051;-88
2022/03/04 08:31:25;;;;;;;86.28;40.55;;;;;;;0.39;78.22;99282.80;4286418;80;21570;-90
2022/03/04 08:37:27;;;;;;;90.42;41.55;;;;;;;0.39;78.22;99282.80;4294554;80;21101;-88
2022/03/04 08:43:28;;;;;;;90.70;41.13;;;;;;;0.52;78.25;99277.37;4288110;80;21020;-89
2022/03/04 08:49:30;;;;;;;85.28;40.52;;;;;;;0.57;78.20;99287.24;4289398;80;21094;-94
2022/03/04 08:55:31;;;;;;;81.17;39.13;;;;;;;0.68;78.23;99281.88;4300136;80;20984;-89
2022/03/04 09:01:33;;;;;;;77.78;37.13;;;;;;;0.78;78.36;99288.41;4299953;80;21027;-88
2022/03/04 09:07:35;;;;;;;86.72;38.00;;;;;;;1.00;78.50;99284.39;4304878;80;21027;-89
2022/03/04 09:13:38;;;;;;;90.50;39.35;;;;;;;1.05;79.16;99286.98;4295886;80;21510;-88
2022/03/04 09:19:39;;;;;;;80.70;36.83;;;;;;;1.43;78.87;99290.88;4290808;80;21633;-88
2022/03/04 09:25:57;;;;;;;92.53;44.03;;;;;;;1.76;78.29;99301.63;4315598;80;21051;-88
2022/03/04 09:32:00;;;;;;;71.47;36.38;;;;;;;1.76;77.72;99307.03;4292899;80;21109;-87
2022/03/04 09:38:02;;;;;;;86.22;42.10;;;;;;;1.91;77.59;99307.97;4297306;80;21024;-88
2022/03/04 09:44:04;;;;;;;81.85;40.92;;;;;;;1.81;77.63;99316.35;4297748;80;21039;-87
2022/03/04 09:50:07;;;;;;;78.70;38.60;;;;;;;1.89;77.54;99321.55;4309941;80;21093;-89
2022/03/04 09:56:10;;;;;;;85.30;40.05;;;;;;;1.98;77.76;99311.58;4307911;80;21863;-89
2022/03/04 10:02:13;;;;;;;80.30;37.42;;;;;;;2.02;77.83;99313.34;4311521;80;21019;-87
2022/03/04 10:08:19;;;;;;;67.90;33.08;;;;;;;2.12;77.34;99319.83;4315043;80;21010;-87
2022/03/04 10:14:21;;;;;;;52.50;27.07;;;;;;;2.29;77.34;99315.84;4308518;80;21059;-89
2022/03/04 10:20:33;;;;;;;63.35;30.05;;;;;;;2.43;77.15;99308.42;4309565;80;21518;-88
2022/03/04 10:26:34;;;;;;;66.70;32.13;;;;;;;2.66;76.84;99311.24;4310125;80;21074;-88
2022/03/04 10:32:36;;;;;;;64.40;33.08;;;;;;;2.79;76.44;99314.92;4312437;80;21577;-89
2022/03/04 10:38:41;;;;;;;67.72;34.50;;;;;;;2.83;76.07;99313.20;4313522;80;21540;-89
2022/03/04 10:44:43;;;;;;;76.82;35.30;;;;;;;2.72;76.17;99311.91;4312221;80;21126;-94
2022/03/04 10:50:52;;;;;;;67.65;32.65;;;;;;;2.56;76.05;99311.56;4286213;80;21884;-88
2022/03/04 10:56:55;;;;;;;65.62;32.53;;;;;;;2.66;76.23;99308.55;4303461;80;21083;-89
2022/03/04 11:02:58;;;;;;;55.50;26.87;;;;;;;2.83;75.98;99309.14;4291653;80;21054;-89
2022/03/04 11:09:00;;;;;;;54.50;26.35;;;;;;;3.00;75.69;99312.66;4281939;80;21011;-91
2022/03/04 11:15:02;;;;;;;69.05;30.70;;;;;;;3.15;75.34;99304.61;4305833;80;21051;-92
2022/03/04 11:21:07;;;;;;;60.80;32.17;;;;;;;3.43;75.12;99301.03;4284132;80;20980;-92
2022/03/04 11:27:12;;;;;;;66.30;32.75;;;;;;;3.42;74.86;99294.81;4299535;80;21062;-89
2022/03/04 11:33:24;;;;;;;61.45;26.37;;;;;;;3.46;75.15;99296.33;4303088;82;21109;-89
2022/03/04 11:39:25;;;;;;;61.77;29.75;;;;;;;3.65;74.41;99292.13;4307954;82;21599;-92
2022/03/04 11:45:36;;;;;;;59.08;29.57;;;;;;;3.68;74.20;99292.06;4294886;82;21059;-90
2022/03/04 11:51:40;;;;;;;55.08;27.95;;;;;;;3.55;74.13;99286.27;4300449;82;21070;-88
2022/03/04 11:57:45;;;;;;;53.45;25.40;;;;;;;3.54;74.02;99282.76;4319586;80;21082;-90
2022/03/04 12:04:11;;;;;;;50.63;25.00;;;;;;;3.71;73.96;99276.53;4316308;80;21054;-91
2022/03/04 12:10:35;;;;;;;39.10;20.85;;;;;;;3.77;73.58;99283.35;4312604;80;21051;-90
2022/03/04 12:16:49;;;;;;;46.98;21.35;;;;;;;3.95;73.12;99286.23;4297461;80;21582;-91
2022/03/04 12:22:57;;;;;;;47.65;23.18;;;;;;;4.06;72.50;99280.69;4306723;80;21054;-89
2022/03/04 12:29:09;;;;;;;52.00;26.40;;;;;;;4.18;72.26;99271.34;4283905;80;21035;-91
2022/03/04 12:35:12;;;;;;;54.15;24.98;;;;;;;4.14;72.56;99270.37;4283848;80;21399;-92
2022/03/04 12:41:18;;;;;;;66.05;29.87;;;;;;;4.05;72.38;99273.69;4292085;80;21113;-88
2022/03/04 12:47:19;;;;;;;62.67;31.47;;;;;;;3.89;72.39;99273.44;4300653;80;21665;-90
2022/03/04 12:53:30;;;;;;;67.55;32.50;;;;;;;3.33;72.18;99271.03;4292638;80;21530;-89
2022/03/04 12:59:48;;;;;;;62.65;30.80;;;;;;;3.13;72.69;99268.98;4296685;80;21106;-90
2022/03/04 13:05:51;;;;;;;64.40;31.77;;;;;;;2.94;72.75;99271.98;4272258;80;21036;-89
2022/03/04 13:11:54;;;;;;;72.97;33.45;;;;;;;2.83;73.00;99269.94;4294259;80;21585;-91
2022/03/04 13:17:56;;;;;;;66.12;31.45;;;;;;;2.81;73.12;99265.39;4288584;80;21047;-91
2022/03/04 13:23:58;;;;;;;72.30;32.08;;;;;;;2.84;72.93;99270.16;4294120;80;21677;-89
2022/03/04 13:29:59;;;;;;;59.03;29.80;;;;;;;2.84;72.92;99264.21;4299584;80;21062;-91
2022/03/04 13:36:03;;;;;;;65.95;29.87;;;;;;;2.82;72.89;99267.78;4303376;80;21519;-90
2022/03/04 13:42:23;;;;;;;67.20;30.70;;;;;;;2.79;72.85;99273.02;4294071;82;21048;-91
2022/03/04 13:48:25;;;;;;;75.97;37.03;;;;;;;2.74;73.06;99273.20;4294446;82;21090;-91
2022/03/04 13:54:51;;;;;;;79.77;32.73;;;;;;;2.72;73.25;99271.36;4282874;81;21562;-90
2022/03/04 14:00:57;;;;;;;72.58;34.18;;;;;;;2.75;73.40;99276.94;4296218;80;21123;-90
2022/03/04 14:07:00;;;;;;;66.82;30.80;;;;;;;2.75;73.49;99280.98;4310619;80;21047;-89
2022/03/04 14:13:05;;;;;;;64.45;29.40;;;;;;;2.67;73.58;99272.31;4298986;80;21849;-90
2022/03/04 14:19:09;;;;;;;69.80;31.30;;;;;;;2.63;73.56;99280.02;4289020;80;21039;-90
2022/03/04 14:25:11;;;;;;;61.30;29.15;;;;;;;2.67;73.53;99280.97;4301773;80;21023;-89
2022/03/04 14:31:13;;;;;;;60.25;29.42;;;;;;;2.67;73.47;99289.88;4289634;80;21059;-90
2022/03/04 14:37:15;;;;;;;67.00;29.92;;;;;;;2.64;73.56;99291.86;4297803;80;21093;-90
2022/03/04 14:43:25;;;;;;;66.30;30.15;;;;;;;2.61;73.51;99294.39;4300781;80;21058;-91
2022/03/04 14:49:27;;;;;;;68.95;32.93;;;;;;;2.56;73.90;99302.64;4291702;80;21046;-90
2022/03/04 14:55:34;;;;;;;80.60;33.00;;;;;;;2.56;74.08;99306.16;4285731;80;21471;-92
2022/03/04 15:01:40;;;;;;;78.80;34.70;;;;;;;2.42;74.30;99301.43;4282572;80;21035;-91
2022/03/04 15:07:43;;;;;;;55.90;26.40;;;;;;;2.42;74.30;99301.43;4296764;80;21003;-90
2022/03/04 15:13:47;;;;;;;80.80;38.38;;;;;;;2.28;74.36;99310.20;4305048;80;21354;-92
2022/03/04 15:19:49;;;;;;;74.17;35.73;;;;;;;2.22;74.50;99312.81;4302377;80;21032;-90
2022/03/04 15:25:52;;;;;;;61.80;30.72;;;;;;;2.15;75.02;99315.70;4306617;80;21043;-90
2022/03/04 15:31:56;;;;;;;86.32;38.33;;;;;;;2.11;74.58;99314.20;4293938;80;21043;-90
2022/03/04 15:37:58;;;;;;;81.30;37.00;;;;;;;2.05;75.42;99316.77;4289976;80;21335;-90
2022/03/04 15:44:03;;;;;;;86.53;39.53;;;;;;;1.97;75.30;99314.05;4292288;80;21058;-90
2022/03/04 15:50:06;;;;;;;82.53;37.60;;;;;;;1.83;76.60;99312.80;4307936;80;21058;-90
2022/03/04 15:56:18;;;;;;;95.28;41.98;;;;;;;1.66;77.39;99309.20;4317315;80;21071;-91
2022/03/04 16:02:23;;;;;;;88.45;40.70;;;;;;;1.58;77.18;99322.32;4320960;80;21070;-90
2022/03/04 16:08:29;;;;;;;100.83;42.23;;;;;;;1.66;76.94;99329.44;4324817;80;21127;-91
2022/03/04 16:14:35;;;;;;;80.62;36.55;;;;;;;1.67;77.41;99337.77;4332787;81;21058;-90
2022/03/04 16:20:37;;;;;;;100.90;44.13;;;;;;;1.61;76.95;99334.42;4335062;80;21082;-89
2022/03/04 16:26:43;;;;;;;93.47;42.93;;;;;;;1.46;77.64;99337.47;4321379;80;21012;-90
2022/03/04 16:32:46;;;;;;;99.97;44.25;;;;;;;1.48;77.68;99342.83;4310409;80;21051;-92
2022/03/04 16:38:52;;;;;;;105.40;46.77;;;;;;;1.40;77.93;99341.40;4307690;80;21522;-90
2022/03/04 16:45:00;;;;;;;108.50;48.20;;;;;;;1.37;78.12;99344.71;4316435;80;21086;-91
2022/03/04 16:51:17;;;;;;;105.22;46.90;;;;;;;1.34;78.58;99345.33;4302168;80;21555;-89
2022/03/04 16:57:25;;;;;;;109.32;48.58;;;;;;;1.35;78.74;99354.46;4293063;82;21078;-89
2022/03/04 17:03:28;;;;;;;126.35;55.67;;;;;;;1.32;78.72;99358.31;4288452;80;21077;-89
2022/03/04 17:09:35;;;;;;;113.70;52.08;;;;;;;1.32;79.19;99358.31;4297526;80;21119;-89
2022/03/04 17:15:39;;;;;;;113.90;50.65;;;;;;;1.33;79.03;99361.27;4300881;80;21034;-90
2022/03/04 17:21:49;;;;;;;112.40;49.50;;;;;;;1.25;79.49;99360.65;4286475;80;21074;-90
2022/03/04 17:27:52;;;;;;;103.60;49.45;;;;;;;1.21;79.73;99364.50;4299538;80;21022;-90
2022/03/04 17:33:57;;;;;;;94.97;45.12;;;;;;;1.22;80.12;99366.66;4300072;80;21063;-92
2022/03/04 17:40:04;;;;;;;121.07;50.17;;;;;;;1.20;80.36;99366.97;4294252;80;21523;-90
2022/03/04 17:46:06;;;;;;;107.30;46.28;;;;;;;1.20;80.59;99370.20;4289719;80;21618;-90
2022/03/04 17:52:09;;;;;;;95.45;44.42;;;;;;;1.20;80.64;99367.50;4311629;80;21605;-90
2022/03/04 17:58:14;;;;;;;100.38;45.92;;;;;;;1.19;81.21;99368.62;4302525;80;21074;-91
2022/03/04 18:04:20;;;;;;;104.67;47.90;;;;;;;1.13;81.10;99368.45;4299110;80;21031;-90
2022/03/04 18:10:22;;;;;;;103.92;47.30;;;;;;;1.11;81.46;99376.85;4310150;80;21062;-90
2022/03/04 18:16:25;;;;;;;107.67;48.70;;;;;;;1.06;81.58;99376.98;4292736;80;22397;-89
2022/03/04 18:22:26;;;;;;;117.87;51.15;;;;;;;1.01;81.74;99382.48;4298497;80;21436;-90
2022/03/04 18:28:29;;;;;;;125.20;51.98;;;;;;;0.95;81.72;99393.14;4292821;80;21609;-90
2022/03/04 18:34:31;;;;;;;105.10;48.38;;;;;;;0.90;82.18;99389.73;4296285;80;21127;-89
2022/03/04 18:40:33;;;;;;;118.57;52.98;;;;;;;0.81;82.28;99392.90;4293293;80;21038;-90
2022/03/04 18:46:34;;;;;;;119.70;54.83;;;;;;;0.80;82.20;99389.39;4282256;80;21047;-90
2022/03/04 18:52:36;;;;;;;118.97;53.02;;;;;;;0.78;82.58;99386.23;4300146;80;21050;-91
2022/03/04 18:58:37;;;;;;;127.87;57.35;;;;;;;0.74;83.17;99389.26;4296615;80;21734;-90
2022/03/04 19:04:41;;;;;;;123.02;57.25;;;;;;;0.71;83.39;99393.91;4290439;80;21058;-88
2022/03/04 19:10:42;;;;;;;129.90;57.13;;;;;;;0.65;83.08;99388.91;4297273;80;21068;-95
2022/03/04 19:16:44;;;;;;;122.72;54.18;;;;;;;0.62;83.62;99387.62;4288229;80;21093;-89
2022/03/04 19:22:48;;;;;;;115.37;54.08;;;;;;;0.62;83.46;99384.13;4298636;80;21629;-89
2022/03/04 19:28:50;;;;;;;139.28;59.85;;;;;;;0.58;83.76;99385.84;4285654;80;22057;-90
2022/03/04 19:34:51;;;;;;;135.25;58.73;;;;;;;0.60;84.09;99385.77;4291489;80;21470;-92
2022/03/04 19:40:53;;;;;;;130.40;59.85;;;;;;;0.59;84.28;99382.03;4281935;80;21057;-89
2022/03/04 19:46:55;;;;;;;138.75;59.45;;;;;;;0.60;84.35;99379.05;4296016;80;21027;-89
2022/03/04 19:52:58;;;;;;;141.10;61.23;;;;;;;0.61;84.69;99379.28;4292433;80;21591;-93
2022/03/04 19:59:00;;;;;;;130.15;57.98;;;;;;;0.63;84.70;99384.36;4299075;80;21023;-91
2022/03/04 20:05:01;;;;;;;148.22;61.15;;;;;;;0.62;84.91;99382.24;4303437;80;21050;-89
2022/03/04 20:11:05;;;;;;;148.65;66.12;;;;;;;0.62;85.03;99383.59;4293611;80;21019;-94
2022/03/04 20:17:07;;;;;;;145.75;62.80;;;;;;;0.54;84.15;99384.83;4300335;80;21558;-91
2022/03/04 20:23:09;;;;;;;161.03;67.87;;;;;;;0.46;85.34;99376.91;4296673;80;21041;-90
2022/03/04 20:29:11;;;;;;;175.65;75.75;;;;;;;0.39;84.27;99387.29;4291457;80;21130;-89
2022/03/04 20:35:13;;;;;;;171.32;73.67;;;;;;;0.33;85.18;99389.80;4291399;80;21070;-90
2022/03/04 20:41:24;;;;;;;168.35;72.92;;;;;;;0.25;85.56;99374.34;4299099;80;21090;-89
2022/03/04 20:47:25;;;;;;;148.50;62.48;;;;;;;0.41;85.99;99393.16;4289219;80;21102;-91
2022/03/04 20:53:30;;;;;;;122.15;55.83;;;;;;;0.44;85.88;99399.86;4244028;82;21051;-89
2022/03/04 20:59:33;;;;;;;109.85;51.23;;;;;;;0.45;86.25;99402.25;4192377;83;20987;-88
2022/03/04 21:05:45;;;;;;;115.32;49.27;;;;;;;0.50;86.38;99399.44;4200059;83;21094;-89
2022/03/04 21:11:47;;;;;;;113.52;49.30;;;;;;;0.51;86.04;99403.74;4184008;82;21043;-89
2022/03/04 21:17:54;;;;;;;101.22;43.95;;;;;;;0.33;86.19;99376.34;4188861;83;22006;-87
2022/03/04 21:24:14;;;;;;;94.32;40.15;;;;;;;0.50;85.87;99412.13;4206306;83;21087;-89
2022/03/04 21:30:16;;;;;;;85.95;39.30;;;;;;;0.46;85.65;99413.80;4187885;83;21130;-90
2022/03/04 21:36:19;;;;;;;82.05;35.55;;;;;;;0.44;85.78;99420.06;4191179;83;21050;-89
2022/03/04 21:42:43;;;;;;;66.02;32.13;;;;;;;0.39;85.84;99412.88;4202206;83;21910;-89
2022/03/04 21:48:45;;;;;;;57.30;28.23;;;;;;;0.39;85.35;99410.72;4200088;83;21131;-88
2022/03/04 21:54:49;;;;;;;61.45;27.32;;;;;;;0.36;85.99;99404.59;4204530;83;21072;-90
2022/03/04 22:00:51;;;;;;;60.35;27.02;;;;;;;0.38;86.58;99396.98;4188495;83;21101;-91
2022/03/04 22:07:03;;;;;;;59.38;27.15;;;;;;;0.38;86.77;99391.06;4189445;83;21621;-89
2022/03/04 22:13:07;;;;;;;60.35;27.40;;;;;;;0.38;86.73;99389.72;4190487;83;21490;-89
2022/03/04 22:19:13;;;;;;;69.90;30.57;;;;;;;0.25;86.54;99371.64;4193517;83;21068;-89
2022/03/04 22:25:20;;;;;;;54.58;24.23;;;;;;;0.33;86.62;99388.45;4193839;83;21123;-89
2022/03/04 22:31:27;;;;;;;49.33;22.98;;;;;;;0.27;85.93;99395.61;4185592;83;21670;-89
2022/03/04 22:37:29;;;;;;;45.60;21.07;;;;;;;0.10;86.04;99375.98;4195145;83;21068;-90
2022/03/04 22:43:37;;;;;;;40.48;20.70;;;;;;;0.10;86.04;99375.98;4190874;83;21098;-89
2022/03/04 22:49:43;;;;;;;42.10;20.97;;;;;;;0.11;86.78;99371.41;4301623;80;21012;-90
2022/03/04 22:55:47;;;;;;;42.77;21.10;;;;;;;0.12;86.86;99362.22;4311268;80;21071;-89
2022/03/04 23:01:50;;;;;;;43.05;18.17;;;;;;;0.31;86.97;99391.21;4313084;80;21113;-89
2022/03/04 23:08:06;;;;;;;41.48;19.10;;;;;;;0.16;86.06;99380.17;4315844;80;21050;-89
2022/03/04 23:14:08;;;;;;;37.45;17.75;;;;;;;-0.01;86.30;99384.79;4310379;80;21100;-89
2022/03/04 23:20:10;;;;;;;40.48;18.57;;;;;;;0.14;86.50;99407.15;4311078;80;21046;-90
2022/03/04 23:26:13;;;;;;;41.75;19.62;;;;;;;0.18;87.12;99407.60;4311533;80;20947;-91
2022/03/04 23:32:18;;;;;;;38.05;18.07;;;;;;;0.15;86.82;99405.50;4313474;80;21066;-89
2022/03/04 23:38:27;;;;;;;41.37;19.67;;;;;;;0.20;87.26;99411.34;4309585;80;21053;-89
2022/03/04 23:44:29;;;;;;;39.73;20.37;;;;;;;0.17;87.27;99403.33;4315003;80;21062;-92
2022/03/04 23:50:37;;;;;;;49.08;24.27;;;;;;;0.17;87.27;99403.33;4186152;83;21650;-91
2022/03/04 23:56:40;;;;;;;47.38;23.00;;;;;;;0.24;87.46;99416.38;4157884;83;21569;-90
